sensor_id;sensor_type;location;lat;lon;timestamp;temperature;humidity
55785;DHT22;41709;52.536;5.688;2023-07-22T00:00:40;15.60;82.60
55785;DHT22;41709;52.536;5.688;2023-07-22T00:03:06;15.50;82.50
55785;DHT22;41709;52.536;5.688;2023-07-22T00:05:31;15.50;83.50
55785;DHT22;41709;52.536;5.688;2023-07-22T00:07:57;15.50;82.80
55785;DHT22;41709;52.536;5.688;2023-07-22T00:10:22;15.50;82.90
55785;DHT22;41709;52.536;5.688;2023-07-22T00:12:48;15.60;83.00
55785;DHT22;41709;52.536;5.688;2023-07-22T00:15:13;15.50;83.10
55785;DHT22;41709;52.536;5.688;2023-07-22T00:17:40;15.50;83.10
55785;DHT22;41709;52.536;5.688;2023-07-22T00:20:07;15.50;83.10
55785;DHT22;41709;52.536;5.688;2023-07-22T00:22:35;15.50;83.20
55785;DHT22;41709;52.536;5.688;2023-07-22T00:25:01;15.60;83.70
55785;DHT22;41709;52.536;5.688;2023-07-22T00:27:27;15.60;84.40
55785;DHT22;41709;52.536;5.688;2023-07-22T00:29:52;15.60;84.40
55785;DHT22;41709;52.536;5.688;2023-07-22T00:32:18;15.60;84.70
55785;DHT22;41709;52.536;5.688;2023-07-22T00:34:43;15.60;84.80
55785;DHT22;41709;52.536;5.688;2023-07-22T00:37:09;15.60;84.90
55785;DHT22;41709;52.536;5.688;2023-07-22T00:39:35;15.60;85.00
55785;DHT22;41709;52.536;5.688;2023-07-22T00:42:00;15.70;85.20
55785;DHT22;41709;52.536;5.688;2023-07-22T00:44:26;15.60;85.00
55785;DHT22;41709;52.536;5.688;2023-07-22T00:46:54;15.60;85.10
55785;DHT22;41709;52.536;5.688;2023-07-22T00:49:23;15.70;85.40
55785;DHT22;41709;52.536;5.688;2023-07-22T00:51:49;15.70;85.50
55785;DHT22;41709;52.536;5.688;2023-07-22T00:54:15;15.70;85.30
55785;DHT22;41709;52.536;5.688;2023-07-22T00:56:41;15.70;85.10
55785;DHT22;41709;52.536;5.688;2023-07-22T00:59:07;15.60;85.10
55785;DHT22;41709;52.536;5.688;2023-07-22T01:01:33;15.60;84.90
55785;DHT22;41709;52.536;5.688;2023-07-22T01:03:58;15.60;84.70
55785;DHT22;41709;52.536;5.688;2023-07-22T01:06:25;15.60;84.60
55785;DHT22;41709;52.536;5.688;2023-07-22T01:08:51;15.50;84.60
55785;DHT22;41709;52.536;5.688;2023-07-22T01:11:17;15.50;84.50
55785;DHT22;41709;52.536;5.688;2023-07-22T01:13:42;15.50;84.60
55785;DHT22;41709;52.536;5.688;2023-07-22T01:16:08;15.40;84.50
55785;DHT22;41709;52.536;5.688;2023-07-22T01:18:34;15.40;84.50
55785;DHT22;41709;52.536;5.688;2023-07-22T01:21:00;15.40;84.60
55785;DHT22;41709;52.536;5.688;2023-07-22T01:23:26;15.30;84.70
55785;DHT22;41709;52.536;5.688;2023-07-22T01:25:52;15.30;84.90
55785;DHT22;41709;52.536;5.688;2023-07-22T01:28:20;15.30;84.90
55785;DHT22;41709;52.536;5.688;2023-07-22T01:30:46;15.30;84.90
55785;DHT22;41709;52.536;5.688;2023-07-22T01:33:12;15.30;84.90
55785;DHT22;41709;52.536;5.688;2023-07-22T01:35:37;15.20;84.90
55785;DHT22;41709;52.536;5.688;2023-07-22T01:38:03;15.20;85.00
55785;DHT22;41709;52.536;5.688;2023-07-22T01:40:29;15.20;85.00
55785;DHT22;41709;52.536;5.688;2023-07-22T01:42:54;15.10;85.10
55785;DHT22;41709;52.536;5.688;2023-07-22T01:45:20;15.10;85.40
55785;DHT22;41709;52.536;5.688;2023-07-22T01:47:45;15.10;85.60
55785;DHT22;41709;52.536;5.688;2023-07-22T01:50:11;15.10;85.90
55785;DHT22;41709;52.536;5.688;2023-07-22T01:52:37;15.00;86.10
55785;DHT22;41709;52.536;5.688;2023-07-22T01:55:02;15.00;86.30
55785;DHT22;41709;52.536;5.688;2023-07-22T01:57:32;15.00;86.50
55785;DHT22;41709;52.536;5.688;2023-07-22T01:59:57;15.00;86.70
55785;DHT22;41709;52.536;5.688;2023-07-22T02:02:23;15.00;86.80
55785;DHT22;41709;52.536;5.688;2023-07-22T02:04:48;14.90;86.90
55785;DHT22;41709;52.536;5.688;2023-07-22T02:07:14;14.90;87.10
55785;DHT22;41709;52.536;5.688;2023-07-22T02:09:40;14.90;87.30
55785;DHT22;41709;52.536;5.688;2023-07-22T02:12:06;14.90;87.40
55785;DHT22;41709;52.536;5.688;2023-07-22T02:14:33;14.90;87.50
55785;DHT22;41709;52.536;5.688;2023-07-22T02:16:58;14.90;87.70
55785;DHT22;41709;52.536;5.688;2023-07-22T02:19:24;14.80;87.90
55785;DHT22;41709;52.536;5.688;2023-07-22T02:21:50;14.80;88.00
55785;DHT22;41709;52.536;5.688;2023-07-22T02:24:16;14.80;88.10
55785;DHT22;41709;52.536;5.688;2023-07-22T02:26:41;14.80;88.20
55785;DHT22;41709;52.536;5.688;2023-07-22T02:29:07;14.80;88.10
55785;DHT22;41709;52.536;5.688;2023-07-22T02:31:33;14.80;88.20
55785;DHT22;41709;52.536;5.688;2023-07-22T02:33:58;14.80;88.20
55785;DHT22;41709;52.536;5.688;2023-07-22T02:36:24;14.80;88.20
55785;DHT22;41709;52.536;5.688;2023-07-22T02:38:50;14.80;88.20
55785;DHT22;41709;52.536;5.688;2023-07-22T02:41:15;14.80;88.20
55785;DHT22;41709;52.536;5.688;2023-07-22T02:43:41;14.80;88.30
55785;DHT22;41709;52.536;5.688;2023-07-22T02:46:07;14.80;88.40
55785;DHT22;41709;52.536;5.688;2023-07-22T02:48:33;14.80;88.60
55785;DHT22;41709;52.536;5.688;2023-07-22T02:51:09;14.80;88.70
55785;DHT22;41709;52.536;5.688;2023-07-22T02:53:36;14.70;88.80
55785;DHT22;41709;52.536;5.688;2023-07-22T02:56:06;14.70;89.00
55785;DHT22;41709;52.536;5.688;2023-07-22T02:58:36;14.70;89.00
55785;DHT22;41709;52.536;5.688;2023-07-22T03:01:06;14.70;89.20
55785;DHT22;41709;52.536;5.688;2023-07-22T03:03:34;14.70;89.10
55785;DHT22;41709;52.536;5.688;2023-07-22T03:06:00;14.70;89.20
55785;DHT22;41709;52.536;5.688;2023-07-22T03:08:26;14.80;89.20
55785;DHT22;41709;52.536;5.688;2023-07-22T03:10:51;14.80;89.20
55785;DHT22;41709;52.536;5.688;2023-07-22T03:13:17;14.80;89.10
55785;DHT22;41709;52.536;5.688;2023-07-22T03:15:43;14.80;89.00
55785;DHT22;41709;52.536;5.688;2023-07-22T03:18:09;14.80;89.00
55785;DHT22;41709;52.536;5.688;2023-07-22T03:20:36;14.80;89.00
55785;DHT22;41709;52.536;5.688;2023-07-22T03:23:02;14.90;89.00
55785;DHT22;41709;52.536;5.688;2023-07-22T03:25:28;14.90;89.00
55785;DHT22;41709;52.536;5.688;2023-07-22T03:27:54;14.90;89.00
55785;DHT22;41709;52.536;5.688;2023-07-22T03:30:22;14.90;89.20
55785;DHT22;41709;52.536;5.688;2023-07-22T03:32:48;14.90;89.40
55785;DHT22;41709;52.536;5.688;2023-07-22T03:35:16;14.90;89.50
55785;DHT22;41709;52.536;5.688;2023-07-22T03:37:42;14.90;89.70
55785;DHT22;41709;52.536;5.688;2023-07-22T03:40:09;14.90;89.90
55785;DHT22;41709;52.536;5.688;2023-07-22T03:42:52;15.00;90.00
55785;DHT22;41709;52.536;5.688;2023-07-22T03:45:19;15.00;90.10
55785;DHT22;41709;52.536;5.688;2023-07-22T03:47:46;15.00;90.10
55785;DHT22;41709;52.536;5.688;2023-07-22T03:50:12;15.00;90.20
55785;DHT22;41709;52.536;5.688;2023-07-22T03:52:37;15.00;90.20
55785;DHT22;41709;52.536;5.688;2023-07-22T03:55:03;15.00;90.30
55785;DHT22;41709;52.536;5.688;2023-07-22T03:57:30;15.00;90.30
55785;DHT22;41709;52.536;5.688;2023-07-22T03:59:57;15.10;90.40
55785;DHT22;41709;52.536;5.688;2023-07-22T04:02:23;15.10;90.50
55785;DHT22;41709;52.536;5.688;2023-07-22T04:04:51;15.10;90.50
55785;DHT22;41709;52.536;5.688;2023-07-22T04:07:16;15.10;90.70
55785;DHT22;41709;52.536;5.688;2023-07-22T04:09:43;15.10;90.80
55785;DHT22;41709;52.536;5.688;2023-07-22T04:12:08;15.10;90.80
55785;DHT22;41709;52.536;5.688;2023-07-22T04:14:34;15.10;90.80
55785;DHT22;41709;52.536;5.688;2023-07-22T04:16:59;15.10;90.60
55785;DHT22;41709;52.536;5.688;2023-07-22T04:19:25;15.10;90.70
55785;DHT22;41709;52.536;5.688;2023-07-22T04:21:50;15.00;90.90
55785;DHT22;41709;52.536;5.688;2023-07-22T04:24:16;15.00;91.10
55785;DHT22;41709;52.536;5.688;2023-07-22T04:26:43;15.00;91.30
55785;DHT22;41709;52.536;5.688;2023-07-22T04:29:08;15.10;91.30
55785;DHT22;41709;52.536;5.688;2023-07-22T04:31:34;15.10;91.30
55785;DHT22;41709;52.536;5.688;2023-07-22T04:34:00;15.10;91.30
55785;DHT22;41709;52.536;5.688;2023-07-22T04:36:26;15.10;91.30
55785;DHT22;41709;52.536;5.688;2023-07-22T04:38:51;15.10;91.30
55785;DHT22;41709;52.536;5.688;2023-07-22T04:41:17;15.10;91.30
55785;DHT22;41709;52.536;5.688;2023-07-22T04:43:42;15.10;91.20
55785;DHT22;41709;52.536;5.688;2023-07-22T04:46:08;15.10;91.20
55785;DHT22;41709;52.536;5.688;2023-07-22T04:48:34;15.10;91.10
55785;DHT22;41709;52.536;5.688;2023-07-22T04:51:00;15.10;91.10
55785;DHT22;41709;52.536;5.688;2023-07-22T04:53:25;15.20;91.20
55785;DHT22;41709;52.536;5.688;2023-07-22T04:55:51;15.30;91.20
55785;DHT22;41709;52.536;5.688;2023-07-22T04:58:16;15.20;91.20
55785;DHT22;41709;52.536;5.688;2023-07-22T05:00:42;15.20;91.10
55785;DHT22;41709;52.536;5.688;2023-07-22T05:03:08;15.20;91.10
55785;DHT22;41709;52.536;5.688;2023-07-22T05:05:34;15.20;91.20
55785;DHT22;41709;52.536;5.688;2023-07-22T05:08:01;15.20;91.10
55785;DHT22;41709;52.536;5.688;2023-07-22T05:10:27;15.20;91.00
55785;DHT22;41709;52.536;5.688;2023-07-22T05:12:54;15.30;91.20
55785;DHT22;41709;52.536;5.688;2023-07-22T05:15:20;15.30;91.10
55785;DHT22;41709;52.536;5.688;2023-07-22T05:17:46;15.30;91.10
55785;DHT22;41709;52.536;5.688;2023-07-22T05:20:12;15.30;91.10
55785;DHT22;41709;52.536;5.688;2023-07-22T05:22:40;15.30;91.10
55785;DHT22;41709;52.536;5.688;2023-07-22T05:25:06;15.30;91.10
55785;DHT22;41709;52.536;5.688;2023-07-22T05:27:32;15.30;91.00
55785;DHT22;41709;52.536;5.688;2023-07-22T05:29:58;15.30;90.90
55785;DHT22;41709;52.536;5.688;2023-07-22T05:32:23;15.30;90.90
55785;DHT22;41709;52.536;5.688;2023-07-22T05:34:49;15.20;90.80
55785;DHT22;41709;52.536;5.688;2023-07-22T05:37:15;15.20;91.00
55785;DHT22;41709;52.536;5.688;2023-07-22T05:39:40;15.30;91.10
55785;DHT22;41709;52.536;5.688;2023-07-22T05:42:06;15.30;91.10
55785;DHT22;41709;52.536;5.688;2023-07-22T05:44:32;15.30;91.20
55785;DHT22;41709;52.536;5.688;2023-07-22T05:46:57;15.30;91.20
55785;DHT22;41709;52.536;5.688;2023-07-22T05:49:23;15.30;91.10
55785;DHT22;41709;52.536;5.688;2023-07-22T05:51:48;15.40;91.10
55785;DHT22;41709;52.536;5.688;2023-07-22T05:54:14;15.40;91.10
55785;DHT22;41709;52.536;5.688;2023-07-22T05:56:40;15.40;91.10
55785;DHT22;41709;52.536;5.688;2023-07-22T05:59:06;15.40;91.10
55785;DHT22;41709;52.536;5.688;2023-07-22T06:01:32;15.40;91.20
55785;DHT22;41709;52.536;5.688;2023-07-22T06:03:58;15.40;91.30
55785;DHT22;41709;52.536;5.688;2023-07-22T06:06:23;15.40;91.20
55785;DHT22;41709;52.536;5.688;2023-07-22T06:08:49;15.40;91.10
55785;DHT22;41709;52.536;5.688;2023-07-22T06:11:14;15.50;91.00
55785;DHT22;41709;52.536;5.688;2023-07-22T06:13:40;15.60;91.20
55785;DHT22;41709;52.536;5.688;2023-07-22T06:16:05;15.60;91.10
55785;DHT22;41709;52.536;5.688;2023-07-22T06:18:31;15.60;91.00
55785;DHT22;41709;52.536;5.688;2023-07-22T06:20:57;15.60;90.90
55785;DHT22;41709;52.536;5.688;2023-07-22T06:23:22;15.60;90.80
55785;DHT22;41709;52.536;5.688;2023-07-22T06:25:48;15.70;90.80
55785;DHT22;41709;52.536;5.688;2023-07-22T06:28:13;15.70;90.70
55785;DHT22;41709;52.536;5.688;2023-07-22T06:30:39;15.70;90.80
55785;DHT22;41709;52.536;5.688;2023-07-22T06:33:05;15.80;90.70
55785;DHT22;41709;52.536;5.688;2023-07-22T06:35:30;15.80;91.10
55785;DHT22;41709;52.536;5.688;2023-07-22T06:37:56;15.80;90.60
55785;DHT22;41709;52.536;5.688;2023-07-22T06:40:22;15.90;90.40
55785;DHT22;41709;52.536;5.688;2023-07-22T06:42:47;15.90;90.20
55785;DHT22;41709;52.536;5.688;2023-07-22T06:45:13;16.00;90.20
55785;DHT22;41709;52.536;5.688;2023-07-22T06:47:38;16.00;89.90
55785;DHT22;41709;52.536;5.688;2023-07-22T06:50:04;16.00;89.70
55785;DHT22;41709;52.536;5.688;2023-07-22T06:52:31;16.00;90.00
55785;DHT22;41709;52.536;5.688;2023-07-22T06:54:56;16.10;90.20
55785;DHT22;41709;52.536;5.688;2023-07-22T06:57:22;16.10;90.00
55785;DHT22;41709;52.536;5.688;2023-07-22T06:59:48;16.10;89.70
55785;DHT22;41709;52.536;5.688;2023-07-22T07:02:16;16.20;89.90
55785;DHT22;41709;52.536;5.688;2023-07-22T07:04:42;16.20;90.10
55785;DHT22;41709;52.536;5.688;2023-07-22T07:07:07;16.20;90.20
55785;DHT22;41709;52.536;5.688;2023-07-22T07:09:34;16.20;89.70
55785;DHT22;41709;52.536;5.688;2023-07-22T07:12:00;16.30;89.80
55785;DHT22;41709;52.536;5.688;2023-07-22T07:14:26;16.30;90.00
55785;DHT22;41709;52.536;5.688;2023-07-22T07:16:52;16.30;90.10
55785;DHT22;41709;52.536;5.688;2023-07-22T07:19:17;16.40;90.00
55785;DHT22;41709;52.536;5.688;2023-07-22T07:21:43;16.40;90.20
55785;DHT22;41709;52.536;5.688;2023-07-22T07:24:08;16.40;90.20
55785;DHT22;41709;52.536;5.688;2023-07-22T07:26:34;16.50;90.00
55785;DHT22;41709;52.536;5.688;2023-07-22T07:29:03;16.50;90.10
55785;DHT22;41709;52.536;5.688;2023-07-22T07:31:29;16.60;90.10
55785;DHT22;41709;52.536;5.688;2023-07-22T07:33:55;16.70;90.10
55785;DHT22;41709;52.536;5.688;2023-07-22T07:36:21;16.70;89.40
55785;DHT22;41709;52.536;5.688;2023-07-22T07:38:47;16.80;88.80
55785;DHT22;41709;52.536;5.688;2023-07-22T07:41:12;16.80;88.10
55785;DHT22;41709;52.536;5.688;2023-07-22T07:43:39;16.80;88.30
55785;DHT22;41709;52.536;5.688;2023-07-22T07:46:23;16.90;88.50
55785;DHT22;41709;52.536;5.688;2023-07-22T07:48:51;16.90;88.30
55785;DHT22;41709;52.536;5.688;2023-07-22T07:51:18;17.00;88.30
55785;DHT22;41709;52.536;5.688;2023-07-22T07:53:45;17.10;87.90
55785;DHT22;41709;52.536;5.688;2023-07-22T07:56:13;17.20;87.90
55785;DHT22;41709;52.536;5.688;2023-07-22T07:58:39;17.30;87.90
55785;DHT22;41709;52.536;5.688;2023-07-22T08:01:05;17.30;87.10
55785;DHT22;41709;52.536;5.688;2023-07-22T08:03:32;17.40;87.10
55785;DHT22;41709;52.536;5.688;2023-07-22T08:05:58;17.40;87.30
55785;DHT22;41709;52.536;5.688;2023-07-22T08:08:23;17.50;87.80
55785;DHT22;41709;52.536;5.688;2023-07-22T08:11:10;17.50;87.90
55785;DHT22;41709;52.536;5.688;2023-07-22T08:13:36;17.60;88.10
55785;DHT22;41709;52.536;5.688;2023-07-22T08:16:03;17.60;88.20
55785;DHT22;41709;52.536;5.688;2023-07-22T08:18:30;17.70;88.50
55785;DHT22;41709;52.536;5.688;2023-07-22T08:20:56;17.70;88.70
55785;DHT22;41709;52.536;5.688;2023-07-22T08:23:22;17.70;89.10
55785;DHT22;41709;52.536;5.688;2023-07-22T08:25:48;17.80;89.70
55785;DHT22;41709;52.536;5.688;2023-07-22T08:28:14;17.80;90.00
55785;DHT22;41709;52.536;5.688;2023-07-22T08:30:40;17.90;90.00
55785;DHT22;41709;52.536;5.688;2023-07-22T08:33:09;17.90;90.30
55785;DHT22;41709;52.536;5.688;2023-07-22T08:35:39;18.00;90.00
55785;DHT22;41709;52.536;5.688;2023-07-22T08:38:05;18.00;88.70
55785;DHT22;41709;52.536;5.688;2023-07-22T08:40:35;18.00;88.90
55785;DHT22;41709;52.536;5.688;2023-07-22T08:43:03;18.10;89.00
55785;DHT22;41709;52.536;5.688;2023-07-22T08:45:30;18.10;89.70
55785;DHT22;41709;52.536;5.688;2023-07-22T08:48:06;18.20;89.90
55785;DHT22;41709;52.536;5.688;2023-07-22T08:50:55;18.20;89.70
55785;DHT22;41709;52.536;5.688;2023-07-22T08:53:24;18.30;89.00
55785;DHT22;41709;52.536;5.688;2023-07-22T08:55:51;18.40;89.30
55785;DHT22;41709;52.536;5.688;2023-07-22T08:58:16;18.40;87.00
55785;DHT22;41709;52.536;5.688;2023-07-22T09:00:43;18.40;87.60
55785;DHT22;41709;52.536;5.688;2023-07-22T09:03:09;18.50;87.90
55785;DHT22;41709;52.536;5.688;2023-07-22T09:05:36;18.50;87.20
55785;DHT22;41709;52.536;5.688;2023-07-22T09:08:05;18.60;87.30
55785;DHT22;41709;52.536;5.688;2023-07-22T09:10:32;18.70;85.80
55785;DHT22;41709;52.536;5.688;2023-07-22T09:13:01;18.70;85.10
55785;DHT22;41709;52.536;5.688;2023-07-22T09:15:27;18.70;83.50
55785;DHT22;41709;52.536;5.688;2023-07-22T09:17:53;18.80;84.10
55785;DHT22;41709;52.536;5.688;2023-07-22T09:20:20;18.80;84.30
55785;DHT22;41709;52.536;5.688;2023-07-22T09:22:47;18.90;83.50
55785;DHT22;41709;52.536;5.688;2023-07-22T09:25:14;18.80;82.70
55785;DHT22;41709;52.536;5.688;2023-07-22T09:27:43;18.80;81.20
55785;DHT22;41709;52.536;5.688;2023-07-22T09:30:29;18.80;80.40
55785;DHT22;41709;52.536;5.688;2023-07-22T09:32:57;18.80;80.70
55785;DHT22;41709;52.536;5.688;2023-07-22T09:35:26;18.80;80.40
55785;DHT22;41709;52.536;5.688;2023-07-22T09:37:52;18.70;81.40
55785;DHT22;41709;52.536;5.688;2023-07-22T09:40:21;18.70;80.70
55785;DHT22;41709;52.536;5.688;2023-07-22T09:42:52;18.80;81.30
55785;DHT22;41709;52.536;5.688;2023-07-22T09:45:20;18.80;80.60
55785;DHT22;41709;52.536;5.688;2023-07-22T09:47:48;18.70;80.50
55785;DHT22;41709;52.536;5.688;2023-07-22T09:50:16;18.60;80.60
55785;DHT22;41709;52.536;5.688;2023-07-22T09:52:45;18.50;80.90
55785;DHT22;41709;52.536;5.688;2023-07-22T09:55:11;18.50;79.90
55785;DHT22;41709;52.536;5.688;2023-07-22T09:57:41;18.40;80.10
55785;DHT22;41709;52.536;5.688;2023-07-22T10:00:08;18.40;81.50
55785;DHT22;41709;52.536;5.688;2023-07-22T10:02:36;18.40;81.60
55785;DHT22;41709;52.536;5.688;2023-07-22T10:05:03;18.30;81.60
55785;DHT22;41709;52.536;5.688;2023-07-22T10:07:32;18.20;84.60
55785;DHT22;41709;52.536;5.688;2023-07-22T10:09:59;17.90;84.20
55785;DHT22;41709;52.536;5.688;2023-07-22T10:12:27;17.60;86.90
55785;DHT22;41709;52.536;5.688;2023-07-22T10:14:53;17.40;87.80
55785;DHT22;41709;52.536;5.688;2023-07-22T10:17:19;17.10;87.90
55785;DHT22;41709;52.536;5.688;2023-07-22T10:19:45;17.00;89.00
55785;DHT22;41709;52.536;5.688;2023-07-22T10:22:11;16.90;89.10
55785;DHT22;41709;52.536;5.688;2023-07-22T10:24:39;16.80;90.20
55785;DHT22;41709;52.536;5.688;2023-07-22T10:27:06;16.80;90.00
55785;DHT22;41709;52.536;5.688;2023-07-22T10:29:33;16.80;89.90
55785;DHT22;41709;52.536;5.688;2023-07-22T10:31:59;16.90;89.80
55785;DHT22;41709;52.536;5.688;2023-07-22T10:34:25;16.90;89.70
55785;DHT22;41709;52.536;5.688;2023-07-22T10:36:50;17.10;90.00
55785;DHT22;41709;52.536;5.688;2023-07-22T10:39:26;17.10;89.30
55785;DHT22;41709;52.536;5.688;2023-07-22T10:42:02;17.20;89.30
55785;DHT22;41709;52.536;5.688;2023-07-22T10:44:31;17.20;87.60
55785;DHT22;41709;52.536;5.688;2023-07-22T10:46:58;17.30;86.90
55785;DHT22;41709;52.536;5.688;2023-07-22T10:49:27;17.30;87.60
55785;DHT22;41709;52.536;5.688;2023-07-22T10:51:53;17.30;85.90
55785;DHT22;41709;52.536;5.688;2023-07-22T10:54:32;17.30;86.10
55785;DHT22;41709;52.536;5.688;2023-07-22T10:59:34;17.30;84.50
55785;DHT22;41709;52.536;5.688;2023-07-22T11:02:01;17.30;84.20
55785;DHT22;41709;52.536;5.688;2023-07-22T11:04:27;17.30;85.10
55785;DHT22;41709;52.536;5.688;2023-07-22T11:07:03;17.30;85.50
55785;DHT22;41709;52.536;5.688;2023-07-22T11:12:00;17.40;86.00
55785;DHT22;41709;52.536;5.688;2023-07-22T11:14:33;17.40;86.20
55785;DHT22;41709;52.536;5.688;2023-07-22T11:17:01;17.40;86.20
55785;DHT22;41709;52.536;5.688;2023-07-22T11:19:29;17.40;86.30
55785;DHT22;41709;52.536;5.688;2023-07-22T11:21:55;17.40;86.30
55785;DHT22;41709;52.536;5.688;2023-07-22T11:24:23;17.50;86.20
55785;DHT22;41709;52.536;5.688;2023-07-22T11:26:50;17.40;85.00
55785;DHT22;41709;52.536;5.688;2023-07-22T11:29:16;17.40;85.80
55785;DHT22;41709;52.536;5.688;2023-07-22T11:31:44;17.40;86.50
55785;DHT22;41709;52.536;5.688;2023-07-22T11:34:15;17.30;87.30
55785;DHT22;41709;52.536;5.688;2023-07-22T11:36:41;17.30;87.20
55785;DHT22;41709;52.536;5.688;2023-07-22T11:39:12;17.20;88.00
55785;DHT22;41709;52.536;5.688;2023-07-22T11:41:42;17.00;88.90
55785;DHT22;41709;52.536;5.688;2023-07-22T11:44:09;16.80;90.10
55785;DHT22;41709;52.536;5.688;2023-07-22T11:46:36;16.60;90.50
55785;DHT22;41709;52.536;5.688;2023-07-22T11:49:02;16.60;90.80
55785;DHT22;41709;52.536;5.688;2023-07-22T11:51:28;16.50;91.00
55785;DHT22;41709;52.536;5.688;2023-07-22T11:53:55;16.30;91.30
55785;DHT22;41709;52.536;5.688;2023-07-22T11:56:25;16.20;91.50
55785;DHT22;41709;52.536;5.688;2023-07-22T11:58:52;16.20;91.50
55785;DHT22;41709;52.536;5.688;2023-07-22T12:01:19;16.20;91.30
55785;DHT22;41709;52.536;5.688;2023-07-22T12:03:45;16.20;91.50
55785;DHT22;41709;52.536;5.688;2023-07-22T12:06:11;16.30;91.60
55785;DHT22;41709;52.536;5.688;2023-07-22T12:08:46;16.30;91.40
55785;DHT22;41709;52.536;5.688;2023-07-22T12:11:20;16.40;91.10
55785;DHT22;41709;52.536;5.688;2023-07-22T12:13:46;16.40;90.90
55785;DHT22;41709;52.536;5.688;2023-07-22T12:16:23;16.50;90.90
55785;DHT22;41709;52.536;5.688;2023-07-22T12:18:49;16.60;91.10
55785;DHT22;41709;52.536;5.688;2023-07-22T12:21:15;16.60;90.70
55785;DHT22;41709;52.536;5.688;2023-07-22T12:23:41;16.80;90.40
55785;DHT22;41709;52.536;5.688;2023-07-22T12:26:08;16.90;90.70
55785;DHT22;41709;52.536;5.688;2023-07-22T12:28:34;17.00;90.20
55785;DHT22;41709;52.536;5.688;2023-07-22T12:31:00;17.00;90.30
55785;DHT22;41709;52.536;5.688;2023-07-22T12:33:26;17.10;89.40
55785;DHT22;41709;52.536;5.688;2023-07-22T12:35:54;17.30;88.90
55785;DHT22;41709;52.536;5.688;2023-07-22T12:38:20;17.40;88.00
55785;DHT22;41709;52.536;5.688;2023-07-22T12:40:45;17.50;87.40
55785;DHT22;41709;52.536;5.688;2023-07-22T12:43:11;17.70;87.30
55785;DHT22;41709;52.536;5.688;2023-07-22T12:45:37;17.80;86.50
55785;DHT22;41709;52.536;5.688;2023-07-22T12:48:02;17.90;87.00
55785;DHT22;41709;52.536;5.688;2023-07-22T12:50:31;18.00;84.70
55785;DHT22;41709;52.536;5.688;2023-07-22T12:53:00;18.10;83.50
55785;DHT22;41709;52.536;5.688;2023-07-22T12:55:25;18.10;84.70
55785;DHT22;41709;52.536;5.688;2023-07-22T12:57:52;18.20;83.40
55785;DHT22;41709;52.536;5.688;2023-07-22T13:00:17;18.30;83.50
55785;DHT22;41709;52.536;5.688;2023-07-22T13:02:43;18.40;83.50
55785;DHT22;41709;52.536;5.688;2023-07-22T13:05:09;18.40;84.50
55785;DHT22;41709;52.536;5.688;2023-07-22T13:07:35;18.50;84.20
55785;DHT22;41709;52.536;5.688;2023-07-22T13:10:00;18.60;83.70
55785;DHT22;41709;52.536;5.688;2023-07-22T13:12:28;18.60;83.00
55785;DHT22;41709;52.536;5.688;2023-07-22T13:14:55;18.60;83.00
55785;DHT22;41709;52.536;5.688;2023-07-22T13:17:21;18.70;82.90
55785;DHT22;41709;52.536;5.688;2023-07-22T13:19:46;18.80;83.00
55785;DHT22;41709;52.536;5.688;2023-07-22T13:22:12;18.80;82.60
55785;DHT22;41709;52.536;5.688;2023-07-22T13:24:38;18.80;82.60
55785;DHT22;41709;52.536;5.688;2023-07-22T13:27:04;18.90;82.70
55785;DHT22;41709;52.536;5.688;2023-07-22T13:29:29;18.90;82.40
55785;DHT22;41709;52.536;5.688;2023-07-22T13:31:56;18.90;82.10
55785;DHT22;41709;52.536;5.688;2023-07-22T13:34:21;18.80;78.80
55785;DHT22;41709;52.536;5.688;2023-07-22T13:36:47;18.80;78.10
55785;DHT22;41709;52.536;5.688;2023-07-22T13:39:13;18.60;75.30
55785;DHT22;41709;52.536;5.688;2023-07-22T13:41:38;18.50;76.20
55785;DHT22;41709;52.536;5.688;2023-07-22T13:44:04;18.40;75.00
55785;DHT22;41709;52.536;5.688;2023-07-22T13:46:30;18.30;75.00
55785;DHT22;41709;52.536;5.688;2023-07-22T13:48:56;18.30;74.30
55785;DHT22;41709;52.536;5.688;2023-07-22T13:51:21;18.30;75.10
55785;DHT22;41709;52.536;5.688;2023-07-22T13:53:47;18.20;73.60
55785;DHT22;41709;52.536;5.688;2023-07-22T13:56:13;18.10;75.60
55785;DHT22;41709;52.536;5.688;2023-07-22T13:58:38;18.10;76.80
55785;DHT22;41709;52.536;5.688;2023-07-22T14:01:04;18.00;78.60
55785;DHT22;41709;52.536;5.688;2023-07-22T14:03:29;18.00;78.80
55785;DHT22;41709;52.536;5.688;2023-07-22T14:05:55;18.00;78.20
55785;DHT22;41709;52.536;5.688;2023-07-22T14:08:21;18.00;78.80
55785;DHT22;41709;52.536;5.688;2023-07-22T14:10:47;18.00;77.40
55785;DHT22;41709;52.536;5.688;2023-07-22T14:13:12;18.00;77.50
55785;DHT22;41709;52.536;5.688;2023-07-22T14:15:38;18.00;78.90
55785;DHT22;41709;52.536;5.688;2023-07-22T14:18:04;18.00;78.10
55785;DHT22;41709;52.536;5.688;2023-07-22T14:20:30;18.00;79.80
55785;DHT22;41709;52.536;5.688;2023-07-22T14:22:56;17.90;79.80
55785;DHT22;41709;52.536;5.688;2023-07-22T14:25:22;18.00;81.00
55785;DHT22;41709;52.536;5.688;2023-07-22T14:27:48;18.00;81.20
55785;DHT22;41709;52.536;5.688;2023-07-22T14:30:14;18.00;80.70
55785;DHT22;41709;52.536;5.688;2023-07-22T14:32:39;18.00;79.30
55785;DHT22;41709;52.536;5.688;2023-07-22T14:35:05;17.90;76.80
55785;DHT22;41709;52.536;5.688;2023-07-22T14:37:31;17.90;77.10
55785;DHT22;41709;52.536;5.688;2023-07-22T14:39:57;17.90;76.10
55785;DHT22;41709;52.536;5.688;2023-07-22T14:42:23;17.90;76.90
55785;DHT22;41709;52.536;5.688;2023-07-22T14:44:48;17.90;76.80
55785;DHT22;41709;52.536;5.688;2023-07-22T14:47:14;17.90;76.70
55785;DHT22;41709;52.536;5.688;2023-07-22T14:49:39;17.90;75.90
55785;DHT22;41709;52.536;5.688;2023-07-22T14:52:05;18.00;75.70
55785;DHT22;41709;52.536;5.688;2023-07-22T14:54:32;18.00;75.60
55785;DHT22;41709;52.536;5.688;2023-07-22T14:56:57;18.10;75.70
55785;DHT22;41709;52.536;5.688;2023-07-22T14:59:23;18.10;75.90
55785;DHT22;41709;52.536;5.688;2023-07-22T15:01:49;18.10;75.70
55785;DHT22;41709;52.536;5.688;2023-07-22T15:04:14;18.20;76.30
55785;DHT22;41709;52.536;5.688;2023-07-22T15:06:40;18.20;75.20
55785;DHT22;41709;52.536;5.688;2023-07-22T15:09:05;18.40;75.40
55785;DHT22;41709;52.536;5.688;2023-07-22T15:11:33;18.30;75.50
55785;DHT22;41709;52.536;5.688;2023-07-22T15:13:59;18.40;74.90
55785;DHT22;41709;52.536;5.688;2023-07-22T15:16:25;18.40;75.30
55785;DHT22;41709;52.536;5.688;2023-07-22T15:18:50;18.40;75.40
55785;DHT22;41709;52.536;5.688;2023-07-22T15:21:16;18.40;75.00
55785;DHT22;41709;52.536;5.688;2023-07-22T15:23:41;18.40;75.10
55785;DHT22;41709;52.536;5.688;2023-07-22T15:26:07;18.40;75.30
55785;DHT22;41709;52.536;5.688;2023-07-22T15:28:33;18.40;75.20
55785;DHT22;41709;52.536;5.688;2023-07-22T15:30:58;18.40;75.80